createdAt,value
2023-02-12T00:00:49.068Z,160338.06
2023-02-12T00:03:53.358Z,160343.31
2023-02-12T00:06:57.448Z,160365.47
2023-02-12T00:10:01.570Z,160348.50
2023-02-12T00:13:05.816Z,160338.06
2023-02-12T00:16:13.610Z,160347.25
2023-02-12T00:19:17.975Z,160345.91
2023-02-12T00:22:22.073Z,160360.31
2023-02-12T00:25:26.295Z,160360.31
2023-02-12T00:28:30.469Z,160366.78
2023-02-12T00:31:34.804Z,160357.69
2023-02-12T00:34:39.077Z,160355.09
2023-02-12T00:37:43.070Z,160369.38
2023-02-12T00:40:46.941Z,160365.47
2023-02-12T00:43:51.616Z,160359.00
2023-02-12T00:46:55.420Z,160368.13
2023-02-12T00:49:59.747Z,160368.13
2023-02-12T00:53:03.810Z,160366.78
2023-02-12T00:56:08.288Z,160362.94
2023-02-12T00:59:12.371Z,160373.31
2023-02-12T01:02:18.053Z,160366.78
2023-02-12T01:05:22.213Z,160366.78
2023-02-12T01:08:26.250Z,160368.13
2023-02-12T01:11:30.303Z,160359.00
2023-02-12T01:14:34.622Z,160369.38
2023-02-12T01:17:39.284Z,160379.88
2023-02-12T01:20:43.231Z,160379.88
2023-02-12T01:23:48.187Z,160375.97
2023-02-12T01:26:51.937Z,160369.38
2023-02-12T01:29:56.586Z,160389.03
2023-02-12T01:33:00.825Z,160386.41
2023-02-12T01:36:05.210Z,160400.75
2023-02-12T01:39:10.887Z,160409.91
2023-02-12T01:42:18.670Z,160400.75
2023-02-12T01:45:22.474Z,160411.19
2023-02-12T01:48:29.055Z,160419.03
2023-02-12T01:51:34.741Z,160416.44
2023-02-12T01:54:40.178Z,160400.75
2023-02-12T01:57:47.559Z,160400.75
2023-02-12T02:00:52.682Z,160407.28
2023-02-12T02:04:01.310Z,160420.38
2023-02-12T02:07:08.147Z,160413.84
2023-02-12T02:10:12.320Z,160411.19
2023-02-12T02:13:35.018Z,160406.00
2023-02-12T02:16:43.628Z,160411.19
2023-02-12T02:20:16.577Z,160416.44
2023-02-12T02:23:29.906Z,160420.38
2023-02-12T02:27:03.151Z,160412.53
2023-02-12T02:30:40.492Z,160400.75
2023-02-12T02:33:58.293Z,160406.00
2023-02-12T02:37:19.599Z,160390.31
2023-02-12T02:40:27.344Z,160421.69
2023-02-12T02:43:38.381Z,160413.84
2023-02-12T02:46:48.658Z,160411.19
2023-02-12T02:50:04.679Z,160413.84
2023-02-12T02:53:13.453Z,160412.53
2023-02-12T02:56:20.150Z,160415.13
2023-02-12T02:59:32.913Z,160413.84
2023-02-12T03:02:40.403Z,160404.69
2023-02-12T03:05:49.216Z,160416.44
2023-02-12T03:08:58.481Z,160421.69
2023-02-12T03:12:29.549Z,160430.81
2023-02-12T03:15:46.228Z,160419.03
2023-02-12T03:18:56.046Z,160437.31
2023-02-12T03:22:23.344Z,160445.16
2023-02-12T03:25:57.029Z,160442.56
2023-02-12T03:29:01.277Z,160428.22
2023-02-12T03:32:36.452Z,160429.47
2023-02-12T03:36:05.388Z,160426.88
2023-02-12T03:39:27.392Z,160436.00
2023-02-12T03:42:50.115Z,160434.72
2023-02-12T03:46:13.343Z,160428.22
2023-02-12T03:49:23.801Z,160425.63
2023-02-12T03:52:29.345Z,160416.44
2023-02-12T03:55:39.952Z,160424.28
2023-02-12T03:58:45.398Z,160421.69
2023-02-12T04:01:52.902Z,160436.00
2023-02-12T04:04:56.997Z,160434.72
2023-02-12T04:08:04.318Z,160430.81
2023-02-12T04:11:24.730Z,160446.50
2023-02-12T04:14:53.564Z,160450.41
2023-02-12T04:18:17.232Z,160447.75
2023-02-12T04:21:46.414Z,160445.16
2023-02-12T04:25:18.961Z,160442.56
2023-02-12T04:28:41.878Z,160443.84
2023-02-12T04:31:54.827Z,160450.41
2023-02-12T04:35:05.067Z,160445.16
2023-02-12T04:38:30.809Z,160447.75
2023-02-12T04:41:35.115Z,160455.66
2023-02-12T04:44:42.586Z,160447.75
2023-02-12T04:47:47.439Z,160463.44
2023-02-12T04:50:51.264Z,160460.78
2023-02-12T04:53:55.220Z,160450.41
2023-02-12T04:56:59.593Z,160446.50
2023-02-12T05:00:08.868Z,160460.78
2023-02-12T05:03:12.942Z,160447.75
2023-02-12T05:06:17.191Z,160459.53
2023-02-12T05:09:22.552Z,160463.44
2023-02-12T05:12:26.797Z,160453.00
2023-02-12T05:15:30.831Z,160469.97
2023-02-12T05:18:35.733Z,160463.44
2023-02-12T05:21:39.912Z,160481.72
2023-02-12T05:24:44.227Z,160460.78
2023-02-12T05:27:48.479Z,160460.78
2023-02-12T05:30:52.711Z,160463.44
2023-02-12T05:33:57.065Z,160460.78
2023-02-12T05:37:01.672Z,160449.09
2023-02-12T05:40:06.479Z,160445.16
2023-02-12T05:43:11.112Z,160449.09
2023-02-12T05:46:15.620Z,160453.00
2023-02-12T05:49:19.532Z,160439.91
2023-02-12T05:52:23.737Z,160450.41
2023-02-12T05:55:27.908Z,160447.75
2023-02-12T05:58:32.011Z,160445.16
2023-02-12T06:01:38.578Z,160454.34
2023-02-12T06:04:43.005Z,160449.09
2023-02-12T06:07:47.474Z,160453.00
2023-02-12T06:10:51.946Z,160476.50
2023-02-12T06:13:56.096Z,160466.03
2023-02-12T06:17:00.302Z,160455.66
2023-02-12T06:20:04.706Z,160454.34
2023-02-12T06:23:08.687Z,160453.00
2023-02-12T06:26:12.945Z,160454.34
2023-02-12T06:29:18.108Z,160468.66
2023-02-12T06:32:22.640Z,160453.00
2023-02-12T06:35:27.204Z,160453.00
2023-02-12T06:38:31.373Z,160451.69
2023-02-12T06:41:35.629Z,160449.09
2023-02-12T06:44:39.595Z,160459.53
2023-02-12T06:47:43.339Z,160456.94
2023-02-12T06:50:47.648Z,160466.03
2023-02-12T06:53:53.586Z,160455.66
2023-02-12T06:56:57.494Z,160468.66
2023-02-12T07:00:01.769Z,160460.78
2023-02-12T07:03:05.813Z,160472.56
2023-02-12T07:06:10.812Z,160462.13
2023-02-12T07:09:14.918Z,160463.44
2023-02-12T07:12:19.107Z,160466.03
2023-02-12T07:15:23.319Z,160471.28
2023-02-12T07:18:27.371Z,160492.19
2023-02-12T07:21:32.238Z,160500.03
2023-02-12T07:24:36.412Z,160496.09
2023-02-12T07:27:40.833Z,160502.63
2023-02-12T07:30:45.076Z,160506.53
2023-02-12T07:33:54.717Z,160507.88
2023-02-12T07:36:58.749Z,160517.03
2023-02-12T07:40:03.023Z,160515.72
2023-02-12T07:43:07.895Z,160502.63
2023-02-12T07:46:34.724Z,160501.28
2023-02-12T07:49:38.836Z,160498.69
2023-02-12T07:52:43.223Z,160492.19
2023-02-12T07:55:47.540Z,160514.38
2023-02-12T07:58:53.018Z,160509.19
2023-02-12T08:01:57.183Z,160518.31
2023-02-12T08:05:01.252Z,160526.16
2023-02-12T08:08:05.518Z,160522.19
2023-02-12T08:11:11.542Z,160519.63
2023-02-12T08:14:18.532Z,160515.72
2023-02-12T08:17:22.676Z,160532.69
2023-02-12T08:20:26.696Z,160528.75
2023-02-12T08:23:32.042Z,160554.88
2023-02-12T08:26:38.553Z,160549.63
2023-02-12T08:29:42.758Z,160574.50
2023-02-12T08:32:49.558Z,160554.88
2023-02-12T08:36:05.317Z,160575.81
2023-02-12T08:39:10.682Z,160578.44
2023-02-12T08:42:14.905Z,160578.44
2023-02-12T08:45:19.304Z,160590.16
2023-02-12T08:48:23.839Z,160605.84
2023-02-12T08:51:31.753Z,160621.47
2023-02-12T08:54:35.989Z,160643.69
2023-02-12T08:57:42.605Z,160660.72
2023-02-12T09:00:46.519Z,160673.75
2023-02-12T09:03:51.743Z,160692.00
2023-02-12T09:06:56.472Z,160727.34
2023-02-12T09:10:00.658Z,160744.34
2023-02-12T09:13:04.434Z,160765.25
2023-02-12T09:16:09.091Z,160779.56
2023-02-12T09:19:14.619Z,160809.66
2023-02-12T09:22:18.655Z,160834.50
2023-02-12T09:25:23.033Z,160852.78
2023-02-12T09:28:27.263Z,160872.44
2023-02-12T09:31:32.671Z,160888.09
2023-02-12T09:34:37.107Z,160905.06
2023-02-12T09:37:41.726Z,160912.91
2023-02-12T09:40:51.659Z,160893.34
2023-02-12T09:44:21.607Z,160884.16
2023-02-12T09:47:44.386Z,160881.56
2023-02-12T09:50:57.885Z,160869.81
2023-02-12T09:54:21.028Z,160861.91
2023-02-12T09:57:36.118Z,160858.00
2023-02-12T10:00:40.202Z,160850.16
2023-02-12T10:03:47.370Z,160833.16
2023-02-12T10:07:16.647Z,160831.91
2023-02-12T10:10:39.221Z,160820.16
2023-02-12T10:14:21.055Z,160811.00
2023-02-12T10:17:33.324Z,160818.84
2023-02-12T10:21:05.234Z,160821.44
2023-02-12T10:24:44.243Z,160835.81
2023-02-12T10:27:55.134Z,160852.78
2023-02-12T10:31:03.457Z,160878.91
2023-02-12T10:34:22.702Z,160889.41
2023-02-12T10:37:37.480Z,160915.56
2023-02-12T10:40:44.234Z,160944.34
2023-02-12T10:43:48.447Z,160988.75
2023-02-12T10:46:53.206Z,161001.81
2023-02-12T10:50:02.879Z,160992.69
2023-02-12T10:53:17.519Z,160957.34
2023-02-12T10:56:24.636Z,160940.41
2023-02-12T10:59:29.132Z,160954.75
2023-02-12T11:02:34.330Z,160974.31
2023-02-12T11:05:41.228Z,161016.19
2023-02-12T11:08:46.109Z,161059.38
2023-02-12T11:11:50.379Z,161084.22
2023-02-12T11:14:57.903Z,161080.28
2023-02-12T11:18:07.500Z,161069.78
2023-02-12T11:21:12.923Z,161080.28
2023-02-12T11:24:25.927Z,161092.00
2023-02-12T11:27:31.158Z,161064.63
2023-02-12T11:30:34.800Z,161044.97
2023-02-12T11:33:39.313Z,161043.69
2023-02-12T11:36:46.831Z,161064.63
2023-02-12T11:39:51.439Z,161089.47
2023-02-12T11:43:02.226Z,161106.41
2023-02-12T11:46:08.695Z,161086.81
2023-02-12T11:49:21.316Z,161110.38
2023-02-12T11:52:32.605Z,161136.50
2023-02-12T11:55:40.011Z,161157.44
2023-02-12T11:58:44.927Z,161182.28
2023-02-12T12:01:52.902Z,161171.81
2023-02-12T12:05:11.998Z,161190.09
2023-02-12T12:08:26.317Z,161161.31
2023-02-12T12:11:40.320Z,161162.63
2023-02-12T12:15:09.600Z,161139.09
2023-02-12T12:18:51.295Z,161105.13
2023-02-12T12:22:04.676Z,161044.97
2023-02-12T12:25:25.186Z,161020.13
2023-02-12T12:28:40.058Z,161000.50
2023-02-12T12:31:47.080Z,161003.09
2023-02-12T12:34:52.282Z,161027.94
2023-02-12T12:38:07.593Z,161016.19
2023-02-12T12:42:02.767Z,161005.75
2023-02-12T12:45:20.850Z,160980.91
2023-02-12T12:48:33.933Z,160970.44
2023-02-12T12:51:47.071Z,160986.09
2023-02-12T12:55:28.189Z,160953.41
2023-02-12T12:59:03.469Z,160944.34
2023-02-12T13:02:44.893Z,160945.59
2023-02-12T13:06:16.002Z,160927.28
2023-02-12T13:09:28.551Z,160919.50
2023-02-12T13:12:54.279Z,160899.88
2023-02-12T13:16:20.570Z,160899.88
2023-02-12T13:19:36.863Z,160898.59
2023-02-12T13:22:54.484Z,160889.41
2023-02-12T13:26:11.296Z,160889.41
2023-02-12T13:29:29.668Z,160881.56
2023-02-12T13:32:40.643Z,160881.56
2023-02-12T13:35:49.380Z,160865.84
2023-02-12T13:38:59.932Z,160877.63
2023-02-12T13:42:55.350Z,160897.25
2023-02-12T13:46:02.054Z,160944.34
2023-02-12T13:49:38.198Z,160967.84
2023-02-12T13:53:06.888Z,160983.50
2023-02-12T13:56:36.513Z,160988.75
2023-02-12T13:59:43.363Z,160979.56
2023-02-12T14:02:49.360Z,160970.44
2023-02-12T14:06:13.154Z,160952.13
2023-02-12T14:09:26.691Z,160952.13
2023-02-12T14:12:42.994Z,160953.41
2023-02-12T14:15:56.559Z,160963.91
2023-02-12T14:19:38.436Z,160954.75
2023-02-12T14:22:42.156Z,160933.81
2023-02-12T14:25:55.390Z,160932.50
2023-02-12T14:29:03.169Z,160956.06
2023-02-12T14:32:45.786Z,160983.50
2023-02-12T14:36:15.402Z,160990.09
2023-02-12T14:39:19.490Z,160997.94
2023-02-12T14:42:23.483Z,161000.50
2023-02-12T14:45:35.954Z,161012.28
2023-02-12T14:48:48.882Z,161020.13
2023-02-12T14:52:06.578Z,161027.94
2023-02-12T14:55:25.601Z,161020.13
2023-02-12T14:58:32.522Z,161010.94
2023-02-12T15:01:37.683Z,161000.50
2023-02-12T15:04:45.285Z,160994.00
2023-02-12T15:07:55.581Z,160994.00
2023-02-12T15:11:04.415Z,160986.09
2023-02-12T15:14:14.874Z,160994.00
2023-02-12T15:17:27.710Z,160999.16
2023-02-12T15:20:38.515Z,161004.41
2023-02-12T15:23:44.384Z,161000.50
2023-02-12T15:26:51.670Z,160976.97
2023-02-12T15:29:55.615Z,160976.97
2023-02-12T15:33:04.036Z,160967.84
2023-02-12T15:36:10.659Z,160939.09
2023-02-12T15:39:18.931Z,160936.44
2023-02-12T15:42:42.516Z,160954.75
2023-02-12T15:45:51.892Z,160941.69
2023-02-12T15:48:56.133Z,160935.16
2023-02-12T15:52:04.059Z,160926.03
2023-02-12T15:55:16.356Z,160916.84
2023-02-12T15:58:36.273Z,160912.91
2023-02-12T16:01:40.741Z,160910.31
2023-02-12T16:04:44.987Z,160903.75
2023-02-12T16:07:49.579Z,160909.00
2023-02-12T16:10:55.636Z,160897.25
2023-02-12T16:14:08.467Z,160893.34
2023-02-12T16:17:25.007Z,160889.41
2023-02-12T16:20:29.446Z,160890.69
2023-02-12T16:23:35.306Z,160893.34
2023-02-12T16:26:39.504Z,160889.41
2023-02-12T16:29:52.142Z,160885.47
2023-02-12T16:32:56.545Z,160888.09
2023-02-12T16:36:22.554Z,160872.44
2023-02-12T16:39:54.057Z,160860.66
2023-02-12T16:43:23.368Z,160868.50
2023-02-12T16:46:46.416Z,160861.91
2023-02-12T16:49:59.021Z,160839.75
2023-02-12T16:53:22.404Z,160855.38
2023-02-12T16:56:40.163Z,160843.66
2023-02-12T16:59:45.190Z,160848.91
2023-02-12T17:02:49.616Z,160845.00
2023-02-12T17:05:53.658Z,160846.25
2023-02-12T17:08:59.310Z,160830.56
2023-02-12T17:12:03.514Z,160834.50
2023-02-12T17:15:07.923Z,160833.16
2023-02-12T17:18:12.340Z,160826.63
2023-02-12T17:21:32.532Z,160818.84
2023-02-12T17:24:36.725Z,160827.97
2023-02-12T17:27:41.202Z,160813.59
2023-02-12T17:30:45.545Z,160816.19
2023-02-12T17:33:50.210Z,160808.34
2023-02-12T17:36:54.282Z,160818.84
2023-02-12T17:39:59.011Z,160827.97
2023-02-12T17:43:04.754Z,160814.91
2023-02-12T17:46:14.298Z,160813.59
2023-02-12T17:49:18.821Z,160822.75
2023-02-12T17:52:23.218Z,160824.09
2023-02-12T17:55:27.335Z,160816.19
2023-02-12T17:58:31.547Z,160816.19
2023-02-12T18:01:36.086Z,160816.19
2023-02-12T18:04:40.253Z,160820.16
2023-02-12T18:07:44.563Z,160808.34
2023-02-12T18:10:48.717Z,160809.66
2023-02-12T18:13:56.679Z,160816.19
2023-02-12T18:17:01.000Z,160814.91
2023-02-12T18:20:06.037Z,160824.09
2023-02-12T18:23:11.383Z,160826.63
2023-02-12T18:26:17.307Z,160842.34
2023-02-12T18:29:21.653Z,160809.66
2023-02-12T18:32:25.711Z,160821.44
2023-02-12T18:35:29.563Z,160826.63
2023-02-12T18:38:35.643Z,160804.41
2023-02-12T18:41:40.188Z,160790.09
2023-02-12T18:44:44.192Z,160797.94
2023-02-12T18:47:48.148Z,160807.06
2023-02-12T18:50:55.162Z,160817.50
2023-02-12T18:54:06.339Z,160818.84
2023-02-12T18:57:10.996Z,160818.84
2023-02-12T19:00:15.695Z,160812.25
2023-02-12T19:03:19.523Z,160818.84
2023-02-12T19:06:23.880Z,160808.34
2023-02-12T19:09:28.491Z,160808.34
2023-02-12T19:12:32.639Z,160796.59
2023-02-12T19:15:40.666Z,160800.47
2023-02-12T19:18:47.737Z,160795.34
2023-02-12T19:21:51.736Z,160801.81
2023-02-12T19:24:56.028Z,160801.81
2023-02-12T19:28:00.405Z,160808.34
2023-02-12T19:31:19.907Z,160816.19
2023-02-12T19:34:24.779Z,160807.06
2023-02-12T19:37:28.712Z,160805.72
2023-02-12T19:40:32.977Z,160807.06
2023-02-12T19:43:37.763Z,160805.72
2023-02-12T19:46:42.860Z,160796.59
2023-02-12T19:49:46.651Z,160804.41
2023-02-12T19:52:50.949Z,160795.34
2023-02-12T19:55:55.436Z,160775.66
2023-02-12T19:58:59.412Z,160765.25
2023-02-12T20:02:03.694Z,160782.22
2023-02-12T20:05:08.174Z,160773.06
2023-02-12T20:08:13.625Z,160767.84
2023-02-12T20:11:20.416Z,160776.97
2023-02-12T20:14:24.620Z,160778.31
2023-02-12T20:17:28.859Z,160795.34
2023-02-12T20:20:34.067Z,160786.16
2023-02-12T20:23:38.036Z,160784.84
2023-02-12T20:26:42.403Z,160787.44
2023-02-12T20:29:46.892Z,160787.44
2023-02-12T20:32:51.418Z,160779.56
2023-02-12T20:35:56.874Z,160783.50
2023-02-12T20:39:01.438Z,160796.59
2023-02-12T20:42:05.638Z,160790.09
2023-02-12T20:45:10.011Z,160771.78
2023-02-12T20:48:14.369Z,160778.31
2023-02-12T20:51:21.699Z,160791.34
2023-02-12T20:54:26.052Z,160782.22
2023-02-12T20:57:31.459Z,160774.38
2023-02-12T21:00:35.279Z,160779.56
2023-02-12T21:03:40.148Z,160792.69
2023-02-12T21:06:45.562Z,160776.97
2023-02-12T21:09:50.161Z,160783.50
2023-02-12T21:12:54.346Z,160784.84
2023-02-12T21:16:20.258Z,160778.31
2023-02-12T21:19:25.767Z,160763.94
2023-02-12T21:22:29.539Z,160767.84
2023-02-12T21:25:33.436Z,160782.22
2023-02-12T21:28:37.832Z,160774.38
2023-02-12T21:31:45.636Z,160779.56
2023-02-12T21:34:49.995Z,160771.78
2023-02-12T21:37:53.811Z,160774.38
2023-02-12T21:41:06.442Z,160765.25
2023-02-12T21:44:15.752Z,160766.53
2023-02-12T21:47:19.924Z,160765.25
2023-02-12T21:50:24.080Z,160776.97
2023-02-12T21:53:29.028Z,160770.50
2023-02-12T21:56:33.345Z,160766.53
2023-02-12T21:59:37.403Z,160762.59
2023-02-12T22:02:41.591Z,160758.69
2023-02-12T22:05:46.515Z,160750.84
2023-02-12T22:08:54.174Z,160745.69
2023-02-12T22:11:58.269Z,160761.31
2023-02-12T22:15:02.520Z,160748.22
2023-02-12T22:18:06.712Z,160753.47
2023-02-12T22:21:13.578Z,160745.69
2023-02-12T22:24:18.337Z,160740.44
2023-02-12T22:27:22.556Z,160741.72
2023-02-12T22:30:26.728Z,160758.69
2023-02-12T22:33:30.980Z,160745.69
2023-02-12T22:36:37.421Z,160732.59
2023-02-12T22:39:41.436Z,160719.47
2023-02-12T22:42:45.557Z,160722.09
2023-02-12T22:45:49.589Z,160726.00
2023-02-12T22:48:53.954Z,160732.59
2023-02-12T22:51:58.206Z,160726.00
2023-02-12T22:55:02.666Z,160727.34
2023-02-12T22:58:07.247Z,160710.38
2023-02-12T23:01:14.303Z,160703.84
2023-02-12T23:04:18.728Z,160707.75
2023-02-12T23:07:22.880Z,160686.88
2023-02-12T23:10:27.196Z,160689.47
2023-02-12T23:13:32.010Z,160688.13
2023-02-12T23:16:35.903Z,160711.69
2023-02-12T23:19:39.949Z,160695.94
2023-02-12T23:22:43.786Z,160698.59
2023-02-12T23:25:48.220Z,160690.78
2023-02-12T23:28:52.440Z,160679.00
2023-02-12T23:31:56.543Z,160684.22
2023-02-12T23:35:00.440Z,160680.28
2023-02-12T23:38:04.895Z,160676.38
2023-02-12T23:41:08.818Z,160671.13
2023-02-12T23:44:13.653Z,160667.19
2023-02-12T23:47:17.903Z,160672.44
2023-02-12T23:50:22.362Z,160682.94
2023-02-12T23:53:26.430Z,160677.69
2023-02-12T23:56:30.712Z,160675.09
2023-02-12T23:59:34.881Z,160672.44
